KWWR/WWR METAR and TAF weather

Enter ICAO airport designator
Station Type Date Time Source
KWWR METAR 2020/09/19 02:35 UTC NOAA

KWWR 190235Z AUTO 13007KT 10SM CLR 17/10 A3026 RMK AO2


Station Type Date Time Source
KWWR Decoded METAR 2020/09/19 02:35 UTC NOAA

Woodward, West Woodward Airport, OK, United States (KWWR) 36-26-12N 099-31-16W 667M
Sep 18, 2020 - 10:35 PM EDT / 2020.09.19 0235 UTC
Wind: from the SE (130 degrees) at 8 MPH (7 KT):0
Visibility: 10 mile(s):0
Sky conditions: clear
Temperature: 62 F (17 C)
Dew Point: 50 F (10 C)
Relative Humidity: 63%
Pressure (altimeter): 30.26 in. Hg (1024 hPa)
ob: KWWR 190235Z AUTO 13007KT 10SM CLR 17/10 A3026 RMK AO2
cycle: 2

Station Type Date Time Source
KWWR TAF 2020/09/18 18:33 UTC NOAA

TAF KWWR 181731Z 1818/1918 10006KT P6SM SKC
FM190000 16007KT P6SM SKC
TEMPO 1911/1914 4SM BR

Example: see airport list